createdAt,value
2022-09-12T00:01:37.322Z,1.83
2022-09-12T00:04:05.803Z,2.20
2022-09-12T00:06:36.884Z,2.00
2022-09-12T00:09:08.927Z,1.83
2022-09-12T00:11:38.611Z,2.05
2022-09-12T00:14:09.880Z,1.70
2022-09-12T00:16:39.080Z,2.47
2022-09-12T00:19:08.691Z,1.77
2022-09-12T00:21:38.570Z,1.80
2022-09-12T00:24:07.643Z,1.98
2022-09-12T00:26:36.733Z,1.38
2022-09-12T00:29:05.582Z,1.80
2022-09-12T00:31:35.792Z,1.73
2022-09-12T00:34:04.314Z,1.80
2022-09-12T00:36:32.831Z,1.80
2022-09-12T00:39:01.262Z,4.40
2022-09-12T00:41:32.783Z,1.73
2022-09-12T00:44:03.138Z,1.60
2022-09-12T00:46:39.266Z,1.70
2022-09-12T00:49:14.777Z,1.70
2022-09-12T00:51:47.481Z,1.45
2022-09-12T00:54:20.932Z,1.50
2022-09-12T00:56:54.056Z,1.50
2022-09-12T00:59:27.369Z,1.70
2022-09-12T01:01:58.031Z,1.52
2022-09-12T01:04:29.310Z,1.50
2022-09-12T01:06:59.717Z,1.42
2022-09-12T01:09:28.239Z,1.80
2022-09-12T01:11:57.304Z,1.70
2022-09-12T01:14:26.190Z,1.50
2022-09-12T01:16:56.204Z,1.52
2022-09-12T01:19:43.961Z,1.50
2022-09-12T01:22:28.124Z,1.60
2022-09-12T01:25:09.574Z,1.25
2022-09-12T01:27:50.010Z,1.70
2022-09-12T01:30:48.562Z,1.70
2022-09-12T01:33:35.305Z,1.70
2022-09-12T01:36:39.437Z,1.65
2022-09-12T01:39:16.603Z,1.65
2022-09-12T01:41:54.092Z,1.50
2022-09-12T01:44:29.324Z,1.60
2022-09-12T01:47:08.655Z,1.50
2022-09-12T01:49:43.085Z,1.58
2022-09-12T01:52:19.721Z,1.90
2022-09-12T01:54:52.748Z,1.63
2022-09-12T01:57:26.677Z,1.70
2022-09-12T02:00:00.599Z,1.50
2022-09-12T02:02:36.722Z,1.77
2022-09-12T02:05:10.358Z,1.77
2022-09-12T02:07:43.421Z,1.85
2022-09-12T02:10:16.242Z,1.70
2022-09-12T02:12:51.411Z,1.80
2022-09-12T02:15:24.925Z,2.05
2022-09-12T02:17:59.686Z,1.58
2022-09-12T02:20:47.376Z,1.73
2022-09-12T02:23:20.670Z,1.80
2022-09-12T02:25:53.747Z,2.00
2022-09-12T02:28:27.535Z,2.00
2022-09-12T02:31:05.248Z,1.58
2022-09-12T02:33:46.591Z,2.10
2022-09-12T02:36:24.197Z,1.88
2022-09-12T02:38:53.239Z,1.73
2022-09-12T02:41:22.855Z,2.10
2022-09-12T02:43:53.124Z,1.98
2022-09-12T02:46:24.771Z,1.75
2022-09-12T02:48:55.594Z,2.00
2022-09-12T02:51:24.552Z,1.90
2022-09-12T02:53:53.340Z,1.90
2022-09-12T02:56:27.328Z,1.98
2022-09-12T02:58:57.767Z,1.88
2022-09-12T03:01:37.175Z,2.13
2022-09-12T03:04:36.808Z,1.80
2022-09-12T03:07:15.320Z,2.10
2022-09-12T03:09:49.109Z,2.13
2022-09-12T03:12:32.143Z,1.95
2022-09-12T03:15:19.211Z,1.90
2022-09-12T03:18:05.165Z,1.98
2022-09-12T03:20:51.772Z,1.60
2022-09-12T03:23:28.103Z,2.08
2022-09-12T03:26:01.146Z,2.10
2022-09-12T03:28:30.555Z,2.03
2022-09-12T03:30:59.795Z,1.98
2022-09-12T03:33:28.470Z,1.80
2022-09-12T03:35:58.907Z,2.50
2022-09-12T03:38:27.448Z,1.85
2022-09-12T03:40:55.935Z,2.05
2022-09-12T03:43:24.547Z,1.80
2022-09-12T03:45:53.552Z,2.20
2022-09-12T03:48:22.269Z,1.70
2022-09-12T03:50:50.655Z,2.13
2022-09-12T03:53:20.554Z,2.10
2022-09-12T03:55:49.150Z,2.00
2022-09-12T03:58:17.625Z,1.85
2022-09-12T04:00:46.199Z,1.73
2022-09-12T04:03:14.831Z,2.47
2022-09-12T04:05:43.286Z,2.08
2022-09-12T04:08:11.860Z,1.92
2022-09-12T04:10:41.825Z,2.38
2022-09-12T04:13:10.402Z,2.10
2022-09-12T04:15:38.785Z,2.10
2022-09-12T04:18:07.347Z,1.90
2022-09-12T04:20:37.328Z,2.10
2022-09-12T04:23:05.766Z,1.92
2022-09-12T04:25:34.720Z,2.00
2022-09-12T04:28:04.841Z,1.90
2022-09-12T04:30:35.169Z,1.90
2022-09-12T04:33:07.917Z,1.73
2022-09-12T04:35:36.916Z,1.92
2022-09-12T04:38:05.526Z,1.80
2022-09-12T04:40:33.942Z,1.90
2022-09-12T04:43:02.659Z,2.00
2022-09-12T04:45:32.649Z,2.58
2022-09-12T04:48:01.564Z,1.95
2022-09-12T04:50:29.978Z,1.75
2022-09-12T04:52:58.468Z,1.77
2022-09-12T04:55:26.966Z,2.10
2022-09-12T04:57:55.491Z,2.05
2022-09-12T05:00:23.943Z,2.00
2022-09-12T05:02:53.869Z,2.10
2022-09-12T05:05:22.395Z,2.10
2022-09-12T05:07:50.867Z,1.70
2022-09-12T05:10:19.513Z,1.77
2022-09-12T05:12:48.502Z,2.00
2022-09-12T05:15:17.091Z,3.00
2022-09-12T05:17:46.088Z,5.95
2022-09-12T05:20:17.464Z,8.05
2022-09-12T05:22:45.983Z,12.43
2022-09-12T05:25:14.535Z,10.38
2022-09-12T05:27:44.680Z,10.63
2022-09-12T05:30:16.313Z,11.43
2022-09-12T05:32:44.930Z,9.82
2022-09-12T05:35:13.365Z,8.90
2022-09-12T05:37:44.416Z,9.13
2022-09-12T05:40:16.241Z,7.50
2022-09-12T05:42:44.810Z,8.00
2022-09-12T05:45:14.340Z,6.90
2022-09-12T05:47:43.975Z,7.28
2022-09-12T05:50:12.540Z,6.93
2022-09-12T05:52:43.062Z,6.35
2022-09-12T05:55:11.849Z,5.80
2022-09-12T05:57:40.412Z,4.93
2022-09-12T06:00:10.764Z,5.30
2022-09-12T06:02:42.714Z,5.05
2022-09-12T06:05:11.241Z,5.28
2022-09-12T06:07:39.893Z,4.57
2022-09-12T06:10:12.088Z,4.55
2022-09-12T06:12:40.770Z,4.38
2022-09-12T06:15:10.640Z,4.68
2022-09-12T06:17:39.096Z,3.60
2022-09-12T06:20:08.628Z,4.65
2022-09-12T06:22:37.004Z,4.40
2022-09-12T06:25:06.198Z,3.63
2022-09-12T06:30:04.795Z,3.42
2022-09-12T06:32:34.579Z,3.25
2022-09-12T06:35:03.809Z,3.17
2022-09-12T06:37:32.694Z,2.65
2022-09-12T06:40:01.983Z,3.15
2022-09-12T06:42:33.088Z,2.70
2022-09-12T06:45:03.236Z,2.80
2022-09-12T06:47:32.242Z,2.30
2022-09-12T06:50:00.690Z,1.90
2022-09-12T06:52:29.653Z,2.33
2022-09-12T06:54:58.101Z,2.05
2022-09-12T06:57:30.464Z,1.90
2022-09-12T06:59:58.946Z,1.92
2022-09-12T07:02:28.968Z,2.40
2022-09-12T07:04:58.054Z,2.17
2022-09-12T07:07:26.637Z,2.20
2022-09-12T07:09:57.829Z,1.88
2022-09-12T07:12:26.313Z,2.10
2022-09-12T07:14:57.171Z,2.00
2022-09-12T07:17:25.768Z,1.92
2022-09-12T07:19:55.540Z,1.92
2022-09-12T07:22:24.058Z,2.33
2022-09-12T07:24:54.208Z,2.40
2022-09-12T07:27:22.729Z,2.13
2022-09-12T07:29:51.231Z,2.30
2022-09-12T07:32:19.744Z,2.63
2022-09-12T07:34:48.245Z,2.33
2022-09-12T07:37:18.143Z,2.28
2022-09-12T07:39:46.807Z,2.40
2022-09-12T07:42:15.387Z,2.53
2022-09-12T07:44:44.595Z,2.53
2022-09-12T07:49:41.451Z,2.33
2022-09-12T07:52:09.846Z,3.00
2022-09-12T07:54:39.760Z,2.72
2022-09-12T07:57:08.238Z,3.17
2022-09-12T07:59:52.460Z,3.40
2022-09-12T08:02:22.207Z,2.95
2022-09-12T08:04:51.585Z,2.83
2022-09-12T08:07:20.371Z,3.03
2022-09-12T08:09:50.370Z,2.92
2022-09-12T08:12:20.424Z,3.22
2022-09-12T08:14:48.942Z,2.80
2022-09-12T08:17:17.410Z,3.13
2022-09-12T08:19:45.992Z,3.00
2022-09-12T08:22:14.637Z,2.80
2022-09-12T08:24:43.906Z,2.85
2022-09-12T08:27:14.951Z,3.50
2022-09-12T08:29:43.734Z,3.10
2022-09-12T08:32:12.288Z,3.13
2022-09-12T08:34:40.726Z,2.75
2022-09-12T08:37:09.282Z,2.90
2022-09-12T08:39:37.845Z,2.75
2022-09-12T08:42:07.663Z,2.75
2022-09-12T08:44:55.770Z,2.78
2022-09-12T08:47:29.017Z,3.05
2022-09-12T08:50:07.763Z,2.78
2022-09-12T08:52:43.686Z,2.33
2022-09-12T08:55:25.894Z,2.80
2022-09-12T08:57:55.223Z,2.95
2022-09-12T09:00:27.210Z,2.40
2022-09-12T09:03:10.227Z,2.50
2022-09-12T09:05:47.382Z,2.63
2022-09-12T09:08:27.102Z,2.80
2022-09-12T09:11:03.370Z,2.88
2022-09-12T09:14:05.183Z,2.72
2022-09-12T09:16:39.557Z,2.60
2022-09-12T09:19:17.569Z,3.03
2022-09-12T09:21:52.552Z,4.22
2022-09-12T09:24:25.872Z,4.70
2022-09-12T09:26:58.558Z,5.60
2022-09-12T09:29:31.469Z,5.90
2022-09-12T09:32:04.875Z,7.00
2022-09-12T09:34:33.432Z,7.13
2022-09-12T09:37:10.631Z,5.97
2022-09-12T09:39:52.724Z,6.82
2022-09-12T09:42:32.226Z,7.40
2022-09-12T09:45:04.422Z,7.20
2022-09-12T09:47:34.473Z,7.18
2022-09-12T09:50:03.789Z,6.07
2022-09-12T09:52:33.112Z,6.60
2022-09-12T09:55:02.907Z,5.60
2022-09-12T09:57:46.755Z,5.60
2022-09-12T10:00:27.755Z,5.38
2022-09-12T10:03:27.529Z,5.53
2022-09-12T10:06:00.465Z,4.90
2022-09-12T10:08:31.246Z,4.88
2022-09-12T10:11:03.120Z,4.72
2022-09-12T10:13:43.794Z,5.00
2022-09-12T10:16:22.388Z,4.25
2022-09-12T10:18:54.208Z,4.30
2022-09-12T10:21:29.737Z,4.00
2022-09-12T10:24:05.333Z,4.30
2022-09-12T10:26:37.146Z,3.90
2022-09-12T10:29:14.168Z,4.50
2022-09-12T10:31:48.554Z,4.20
2022-09-12T10:34:33.633Z,5.13
2022-09-12T10:37:06.107Z,4.85
2022-09-12T10:39:36.801Z,4.70
2022-09-12T10:42:06.745Z,4.28
2022-09-12T10:44:36.490Z,3.97
2022-09-12T10:47:24.419Z,3.63
2022-09-12T10:49:54.375Z,3.50
2022-09-12T10:52:25.552Z,3.97
2022-09-12T10:54:54.985Z,3.45
2022-09-12T10:57:59.306Z,3.83
2022-09-12T11:00:30.738Z,3.28
2022-09-12T11:03:07.035Z,5.15
2022-09-12T11:05:55.295Z,3.90
2022-09-12T11:08:38.532Z,3.08
2022-09-12T11:11:15.269Z,2.88
2022-09-12T11:14:06.777Z,3.08
2022-09-12T11:16:43.106Z,2.78
2022-09-12T11:19:33.447Z,2.45
2022-09-12T11:22:26.703Z,3.78
2022-09-12T11:25:13.749Z,2.55
2022-09-12T11:28:05.134Z,2.70
2022-09-12T11:30:43.955Z,2.40
2022-09-12T11:33:30.173Z,2.60
2022-09-12T11:35:59.332Z,2.22
2022-09-12T11:41:11.660Z,2.70
2022-09-12T11:43:45.014Z,2.80
2022-09-12T11:46:21.080Z,3.08
2022-09-12T11:48:56.065Z,2.42
2022-09-12T11:51:29.305Z,2.60
2022-09-12T11:54:07.939Z,2.10
2022-09-12T11:56:39.270Z,2.47
2022-09-12T11:59:16.860Z,2.80
2022-09-12T12:01:50.185Z,2.50
2022-09-12T12:04:26.045Z,2.38
2022-09-12T12:07:03.466Z,2.40
2022-09-12T12:09:34.034Z,2.10
2022-09-12T12:12:07.881Z,2.55
2022-09-12T12:14:43.013Z,2.30
2022-09-12T12:17:16.933Z,2.33
2022-09-12T12:19:47.801Z,2.53
2022-09-12T12:22:19.454Z,2.58
2022-09-12T12:25:07.980Z,2.63
2022-09-12T12:27:52.189Z,2.60
2022-09-12T12:31:02.185Z,2.05
2022-09-12T12:34:13.601Z,2.28
2022-09-12T12:36:43.992Z,2.35
2022-09-12T12:40:01.300Z,2.33
2022-09-12T12:43:10.504Z,2.40
2022-09-12T12:46:11.527Z,2.03
2022-09-12T12:49:10.902Z,2.40
2022-09-12T12:51:57.815Z,2.00
2022-09-12T12:54:52.057Z,2.13
2022-09-12T12:57:28.656Z,2.08
2022-09-12T13:00:02.728Z,2.10
2022-09-12T13:02:37.290Z,2.20
2022-09-12T13:05:08.716Z,1.60
2022-09-12T13:07:40.004Z,1.92
2022-09-12T13:10:09.690Z,2.40
2022-09-12T13:12:47.911Z,1.70
2022-09-12T13:15:51.530Z,2.53
2022-09-12T13:18:27.916Z,1.80
2022-09-12T13:21:05.406Z,1.85
2022-09-12T13:23:35.364Z,1.70
2022-09-12T13:26:05.188Z,2.40
2022-09-12T13:28:33.753Z,1.73
2022-09-12T13:31:04.631Z,1.70
2022-09-12T13:33:39.158Z,1.55
2022-09-12T13:36:41.813Z,2.08
2022-09-12T13:39:20.496Z,1.80
2022-09-12T13:42:21.790Z,1.80
2022-09-12T13:44:54.260Z,1.30
2022-09-12T13:47:32.083Z,1.77
2022-09-12T13:50:02.764Z,1.45
2022-09-12T13:52:35.473Z,1.80
2022-09-12T13:55:09.137Z,2.03
2022-09-12T13:57:41.464Z,1.73
2022-09-12T14:00:19.482Z,1.50
2022-09-12T14:02:49.406Z,1.77
2022-09-12T14:05:22.835Z,1.60
2022-09-12T14:07:56.566Z,1.85
2022-09-12T14:10:30.378Z,1.58
2022-09-12T14:13:00.323Z,1.65
2022-09-12T14:15:31.746Z,1.92
2022-09-12T14:18:02.340Z,1.70
2022-09-12T14:20:36.580Z,2.03
2022-09-12T14:23:10.907Z,2.40
2022-09-12T14:25:42.018Z,1.75
2022-09-12T14:28:16.960Z,1.73
2022-09-12T14:31:03.261Z,2.55
2022-09-12T14:33:35.776Z,1.73
2022-09-12T14:36:19.598Z,1.83
2022-09-12T14:38:51.985Z,1.50
2022-09-12T14:41:27.183Z,1.65
2022-09-12T14:43:59.535Z,1.58
2022-09-12T14:46:32.012Z,1.40
2022-09-12T14:49:15.939Z,1.50
2022-09-12T14:51:56.847Z,1.90
2022-09-12T14:54:40.388Z,1.45
2022-09-12T14:57:36.599Z,1.80
2022-09-12T15:00:23.678Z,1.60
2022-09-12T15:02:54.176Z,1.70
2022-09-12T15:05:26.568Z,1.50
2022-09-12T15:07:59.529Z,1.70
2022-09-12T15:10:31.518Z,1.50
2022-09-12T15:13:15.475Z,1.80
2022-09-12T15:15:50.339Z,1.50
2022-09-12T15:18:19.939Z,2.35
2022-09-12T15:20:50.865Z,2.05
2022-09-12T15:23:28.438Z,2.20
2022-09-12T15:25:56.986Z,2.13
2022-09-12T15:28:26.943Z,2.20
2022-09-12T15:30:57.904Z,2.50
2022-09-12T15:33:26.869Z,1.77
2022-09-12T15:35:55.497Z,2.08
2022-09-12T15:38:26.722Z,1.67
2022-09-12T15:41:03.187Z,2.25
2022-09-12T15:43:42.664Z,1.80
2022-09-12T15:46:13.478Z,2.00
2022-09-12T15:48:44.931Z,1.80
2022-09-12T15:51:18.424Z,2.00
2022-09-12T15:53:49.993Z,1.70
2022-09-12T15:56:21.187Z,2.05
2022-09-12T15:59:00.068Z,1.70
2022-09-12T16:01:34.630Z,1.75
2022-09-12T16:04:24.532Z,1.65
2022-09-12T16:06:53.381Z,1.52
2022-09-12T16:09:33.463Z,1.90
2022-09-12T16:12:12.169Z,1.75
2022-09-12T16:14:55.238Z,1.90
2022-09-12T16:17:25.129Z,1.80
2022-09-12T16:20:29.287Z,1.80
2022-09-12T16:23:08.803Z,1.60
2022-09-12T16:25:43.088Z,1.80
2022-09-12T16:28:21.529Z,1.95
2022-09-12T16:30:59.560Z,1.75
2022-09-12T16:33:49.479Z,1.92
2022-09-12T16:36:20.562Z,1.92
2022-09-12T16:38:50.712Z,2.20
2022-09-12T16:41:22.195Z,2.47
2022-09-12T16:43:50.827Z,2.00
2022-09-12T16:46:21.050Z,2.80
2022-09-12T16:48:52.706Z,2.00
2022-09-12T16:51:23.780Z,2.47
2022-09-12T16:53:52.600Z,2.40
2022-09-12T16:56:22.953Z,2.25
2022-09-12T16:58:51.961Z,2.20
2022-09-12T17:01:23.092Z,2.15
2022-09-12T17:03:54.767Z,3.05
2022-09-12T17:06:24.082Z,2.50
2022-09-12T17:08:54.150Z,2.60
2022-09-12T17:11:26.883Z,2.10
2022-09-12T17:14:05.747Z,2.22
2022-09-12T17:16:36.003Z,2.17
2022-09-12T17:19:05.512Z,2.10
2022-09-12T17:21:34.454Z,2.00
2022-09-12T17:24:03.643Z,2.08
2022-09-12T17:29:03.581Z,2.63
2022-09-12T17:31:32.688Z,2.22
2022-09-12T17:34:03.699Z,2.17
2022-09-12T17:36:34.581Z,2.15
2022-09-12T17:39:05.105Z,2.30
2022-09-12T17:41:35.845Z,2.20
2022-09-12T17:44:06.366Z,2.13
2022-09-12T17:46:37.604Z,2.60
2022-09-12T17:49:09.126Z,3.20
2022-09-12T17:51:38.277Z,2.35
2022-09-12T17:54:09.327Z,2.97
2022-09-12T17:56:39.995Z,2.42
2022-09-12T17:59:12.396Z,2.30
2022-09-12T18:01:59.258Z,2.17
2022-09-12T18:04:28.621Z,2.42
2022-09-12T18:07:00.904Z,3.10
2022-09-12T18:09:31.021Z,2.25
2022-09-12T18:12:01.570Z,2.53
2022-09-12T18:14:30.836Z,2.03
2022-09-12T18:17:00.711Z,2.10
2022-09-12T18:19:30.188Z,3.25
2022-09-12T18:21:59.341Z,2.70
2022-09-12T18:26:58.191Z,2.55
2022-09-12T18:29:28.575Z,2.45
2022-09-12T18:31:58.066Z,2.50
2022-09-12T18:34:27.460Z,2.30
2022-09-12T18:39:27.914Z,2.03
2022-09-12T18:41:57.732Z,2.30
2022-09-12T18:44:28.357Z,2.38
2022-09-12T18:46:57.579Z,1.90
2022-09-12T18:51:55.363Z,2.38
2022-09-12T18:54:24.665Z,2.45
2022-09-12T18:56:53.528Z,2.35
2022-09-12T18:59:22.681Z,2.45
2022-09-12T19:01:53.593Z,1.95
2022-09-12T19:04:23.000Z,2.33
2022-09-12T19:06:51.963Z,2.33
2022-09-12T19:09:21.767Z,2.95
2022-09-12T19:11:50.704Z,2.78
2022-09-12T19:14:22.835Z,2.58
2022-09-12T19:16:54.024Z,2.50
2022-09-12T19:19:22.944Z,2.53
2022-09-12T19:21:51.611Z,2.92
2022-09-12T19:24:21.966Z,2.65
2022-09-12T19:26:51.336Z,2.47
2022-09-12T19:29:20.198Z,3.10
2022-09-12T19:31:49.157Z,2.10
2022-09-12T19:34:19.388Z,2.63
2022-09-12T19:36:48.322Z,2.17
2022-09-12T19:39:19.844Z,2.45
2022-09-12T19:41:49.493Z,2.17
2022-09-12T19:44:19.611Z,2.22
2022-09-12T19:46:49.632Z,2.78
2022-09-12T19:49:19.555Z,2.00
2022-09-12T19:51:48.196Z,2.10
2022-09-12T19:54:16.729Z,2.35
2022-09-12T19:56:45.304Z,2.40
2022-09-12T19:59:13.965Z,2.30
2022-09-12T20:01:42.632Z,1.83
2022-09-12T20:04:11.322Z,2.55
2022-09-12T20:06:41.197Z,2.20
2022-09-12T20:09:09.848Z,1.80
2022-09-12T20:11:38.307Z,1.92
2022-09-12T20:14:07.710Z,2.15
2022-09-12T20:16:36.167Z,2.40
2022-09-12T20:19:08.669Z,2.20
2022-09-12T20:21:38.117Z,3.53
2022-09-12T20:24:11.493Z,2.67
2022-09-12T20:26:40.506Z,2.25
2022-09-12T20:29:10.190Z,2.40
2022-09-12T20:31:40.442Z,2.70
2022-09-12T20:34:09.717Z,2.42
2022-09-12T20:36:38.301Z,2.30
2022-09-12T20:39:08.239Z,2.33
2022-09-12T20:41:36.913Z,2.00
2022-09-12T20:44:05.441Z,2.15
2022-09-12T20:46:34.362Z,2.40
2022-09-12T20:49:02.971Z,2.50
2022-09-12T20:51:31.923Z,2.33
2022-09-12T20:54:02.134Z,2.20
2022-09-12T20:56:33.389Z,2.25
2022-09-12T20:59:02.253Z,2.13
2022-09-12T21:01:32.595Z,2.08
2022-09-12T21:04:01.966Z,2.47
2022-09-12T21:06:31.478Z,2.30
2022-09-12T21:09:00.775Z,1.80
2022-09-12T21:11:29.788Z,2.13
2022-09-12T21:14:00.000Z,2.05
2022-09-12T21:16:28.579Z,2.22
2022-09-12T21:18:59.530Z,2.20
2022-09-12T21:21:28.199Z,1.95
2022-09-12T21:23:59.642Z,1.90
2022-09-12T21:26:28.521Z,1.90
2022-09-12T21:28:57.566Z,2.30
2022-09-12T21:33:55.915Z,1.90
2022-09-12T21:36:25.744Z,1.90
2022-09-12T21:38:54.410Z,1.73
2022-09-12T21:41:22.893Z,1.67
2022-09-12T21:43:51.429Z,1.80
2022-09-12T21:46:20.111Z,1.80
2022-09-12T21:48:50.022Z,1.70
2022-09-12T21:51:18.602Z,1.80
2022-09-12T21:53:47.085Z,1.77
2022-09-12T21:56:15.565Z,1.60
2022-09-12T21:58:44.126Z,2.03
2022-09-12T22:01:13.318Z,1.73
2022-09-12T22:03:43.154Z,1.70
2022-09-12T22:06:14.372Z,1.80
2022-09-12T22:08:43.242Z,1.75
2022-09-12T22:11:12.946Z,1.60
2022-09-12T22:13:44.056Z,1.45
2022-09-12T22:16:13.331Z,1.63
2022-09-12T22:21:14.113Z,1.70
2022-09-12T22:24:00.571Z,1.50
2022-09-12T22:26:29.484Z,1.90
2022-09-12T22:28:58.048Z,1.63
2022-09-12T22:31:27.163Z,1.60
2022-09-12T22:33:57.141Z,1.70
2022-09-12T22:36:30.966Z,1.60
2022-09-12T22:38:59.869Z,1.30
2022-09-12T22:41:28.574Z,1.55
2022-09-12T22:43:58.269Z,1.58
2022-09-12T22:46:27.744Z,1.70
2022-09-12T22:48:56.879Z,1.65
2022-09-12T22:51:27.381Z,1.70
2022-09-12T22:53:56.563Z,1.55
2022-09-12T22:58:53.663Z,1.95
2022-09-12T23:01:22.223Z,1.88
2022-09-12T23:03:50.951Z,1.40
2022-09-12T23:06:19.596Z,1.38
2022-09-12T23:08:49.516Z,1.50
2022-09-12T23:11:21.012Z,1.70
2022-09-12T23:13:52.080Z,1.33
2022-09-12T23:16:21.945Z,1.60
2022-09-12T23:18:50.980Z,1.55
2022-09-12T23:23:51.025Z,1.50
2022-09-12T23:26:21.685Z,1.60
2022-09-12T23:28:52.923Z,1.50
2022-09-12T23:31:21.763Z,1.40
2022-09-12T23:33:51.242Z,1.70
2022-09-12T23:36:19.942Z,1.55
2022-09-12T23:38:48.759Z,1.55
2022-09-12T23:41:19.925Z,1.63
2022-09-12T23:43:48.436Z,1.58
2022-09-12T23:46:19.225Z,1.60
2022-09-12T23:48:48.314Z,1.60
2022-09-12T23:51:17.351Z,1.80
2022-09-12T23:56:14.050Z,1.30
2022-09-12T23:58:44.019Z,1.30
